sensor_id;sensor_type;location;lat;lon;timestamp;P1;durP1;ratioP1;P2;durP2;ratioP2
45940;SDS011;31858;46.008;8.978;2023-03-17T00:02:07;11.23;;;7.45;;
45940;SDS011;31858;46.008;8.978;2023-03-17T00:12:09;12.30;;;7.90;;
45940;SDS011;31858;46.008;8.978;2023-03-17T00:22:14;10.30;;;7.30;;
45940;SDS011;31858;46.008;8.978;2023-03-17T00:32:18;12.23;;;8.27;;
45940;SDS011;31858;46.008;8.978;2023-03-17T00:42:22;10.10;;;7.40;;
45940;SDS011;31858;46.008;8.978;2023-03-17T00:52:24;13.35;;;8.57;;
45940;SDS011;31858;46.008;8.978;2023-03-17T01:02:27;10.80;;;8.75;;
45940;SDS011;31858;46.008;8.978;2023-03-17T01:12:30;11.93;;;9.25;;
45940;SDS011;31858;46.008;8.978;2023-03-17T01:22:33;14.43;;;9.07;;
45940;SDS011;31858;46.008;8.978;2023-03-17T01:32:35;13.82;;;8.80;;
45940;SDS011;31858;46.008;8.978;2023-03-17T01:42:38;10.70;;;8.43;;
45940;SDS011;31858;46.008;8.978;2023-03-17T01:52:40;18.60;;;9.40;;
45940;SDS011;31858;46.008;8.978;2023-03-17T02:02:44;13.35;;;7.95;;
45940;SDS011;31858;46.008;8.978;2023-03-17T02:12:49;9.25;;;7.35;;
45940;SDS011;31858;46.008;8.978;2023-03-17T02:22:56;13.23;;;7.22;;
45940;SDS011;31858;46.008;8.978;2023-03-17T02:32:57;9.57;;;6.65;;
45940;SDS011;31858;46.008;8.978;2023-03-17T02:43:00;11.18;;;5.50;;
45940;SDS011;31858;46.008;8.978;2023-03-17T02:53:03;8.45;;;5.75;;
45940;SDS011;31858;46.008;8.978;2023-03-17T03:03:07;9.00;;;6.20;;
45940;SDS011;31858;46.008;8.978;2023-03-17T03:13:09;7.82;;;5.97;;
45940;SDS011;31858;46.008;8.978;2023-03-17T03:23:13;9.75;;;6.53;;
45940;SDS011;31858;46.008;8.978;2023-03-17T03:33:15;9.40;;;6.10;;
45940;SDS011;31858;46.008;8.978;2023-03-17T03:43:18;10.45;;;6.78;;
45940;SDS011;31858;46.008;8.978;2023-03-17T03:53:20;7.90;;;6.03;;
45940;SDS011;31858;46.008;8.978;2023-03-17T04:03:23;10.98;;;6.82;;
45940;SDS011;31858;46.008;8.978;2023-03-17T04:13:26;11.18;;;7.30;;
45940;SDS011;31858;46.008;8.978;2023-03-17T04:23:29;11.55;;;7.13;;
45940;SDS011;31858;46.008;8.978;2023-03-17T04:33:31;13.32;;;8.80;;
45940;SDS011;31858;46.008;8.978;2023-03-17T04:43:34;9.52;;;7.43;;
45940;SDS011;31858;46.008;8.978;2023-03-17T04:53:35;13.25;;;7.82;;
45940;SDS011;31858;46.008;8.978;2023-03-17T05:03:38;14.30;;;7.82;;
45940;SDS011;31858;46.008;8.978;2023-03-17T05:13:40;9.77;;;7.35;;
45940;SDS011;31858;46.008;8.978;2023-03-17T05:23:43;12.70;;;7.53;;
45940;SDS011;31858;46.008;8.978;2023-03-17T05:33:45;11.27;;;7.45;;
45940;SDS011;31858;46.008;8.978;2023-03-17T05:43:49;12.00;;;7.95;;
45940;SDS011;31858;46.008;8.978;2023-03-17T05:53:51;14.15;;;8.20;;
45940;SDS011;31858;46.008;8.978;2023-03-17T06:03:54;10.85;;;8.15;;
45940;SDS011;31858;46.008;8.978;2023-03-17T06:13:55;13.70;;;8.13;;
45940;SDS011;31858;46.008;8.978;2023-03-17T06:23:58;12.52;;;8.52;;
45940;SDS011;31858;46.008;8.978;2023-03-17T06:34:00;11.00;;;7.82;;
45940;SDS011;31858;46.008;8.978;2023-03-17T06:44:04;11.73;;;7.72;;
45940;SDS011;31858;46.008;8.978;2023-03-17T06:54:06;7.97;;;6.57;;
45940;SDS011;31858;46.008;8.978;2023-03-17T07:04:09;14.45;;;8.32;;
45940;SDS011;31858;46.008;8.978;2023-03-17T07:14:10;13.57;;;9.02;;
45940;SDS011;31858;46.008;8.978;2023-03-17T07:24:14;10.55;;;7.88;;
45940;SDS011;31858;46.008;8.978;2023-03-17T07:34:16;12.07;;;8.00;;
45940;SDS011;31858;46.008;8.978;2023-03-17T07:44:19;9.77;;;7.95;;
45940;SDS011;31858;46.008;8.978;2023-03-17T07:54:21;11.38;;;7.80;;
45940;SDS011;31858;46.008;8.978;2023-03-17T08:04:25;10.13;;;7.78;;
45940;SDS011;31858;46.008;8.978;2023-03-17T08:14:27;11.90;;;8.13;;
45940;SDS011;31858;46.008;8.978;2023-03-17T08:24:30;13.32;;;8.02;;
45940;SDS011;31858;46.008;8.978;2023-03-17T08:34:32;14.23;;;8.60;;
45940;SDS011;31858;46.008;8.978;2023-03-17T08:44:36;8.50;;;5.85;;
45940;SDS011;31858;46.008;8.978;2023-03-17T08:54:38;8.63;;;6.25;;
45940;SDS011;31858;46.008;8.978;2023-03-17T09:04:41;8.35;;;5.55;;
45940;SDS011;31858;46.008;8.978;2023-03-17T09:14:43;9.50;;;6.32;;
45940;SDS011;31858;46.008;8.978;2023-03-17T09:24:46;7.38;;;5.93;;
45940;SDS011;31858;46.008;8.978;2023-03-17T09:34:47;9.88;;;6.57;;
45940;SDS011;31858;46.008;8.978;2023-03-17T09:45:02;12.73;;;6.63;;
45940;SDS011;31858;46.008;8.978;2023-03-17T09:55:23;9.73;;;5.60;;
45940;SDS011;31858;46.008;8.978;2023-03-17T10:05:27;8.32;;;6.03;;
45940;SDS011;31858;46.008;8.978;2023-03-17T10:15:33;8.05;;;6.00;;
45940;SDS011;31858;46.008;8.978;2023-03-17T10:25:40;10.57;;;6.53;;
45940;SDS011;31858;46.008;8.978;2023-03-17T10:35:43;10.73;;;6.38;;
45940;SDS011;31858;46.008;8.978;2023-03-17T10:45:56;12.63;;;7.72;;
45940;SDS011;31858;46.008;8.978;2023-03-17T10:56:06;11.55;;;7.57;;
45940;SDS011;31858;46.008;8.978;2023-03-17T11:06:10;13.80;;;7.27;;
45940;SDS011;31858;46.008;8.978;2023-03-17T11:16:20;13.23;;;7.72;;
45940;SDS011;31858;46.008;8.978;2023-03-17T11:26:30;12.75;;;7.53;;
45940;SDS011;31858;46.008;8.978;2023-03-17T11:36:44;11.13;;;8.00;;
45940;SDS011;31858;46.008;8.978;2023-03-17T11:46:55;11.32;;;7.50;;
45940;SDS011;31858;46.008;8.978;2023-03-17T11:57:07;10.88;;;7.20;;
45940;SDS011;31858;46.008;8.978;2023-03-17T12:07:15;9.15;;;6.53;;
45940;SDS011;31858;46.008;8.978;2023-03-17T12:17:22;9.88;;;7.35;;
45940;SDS011;31858;46.008;8.978;2023-03-17T12:27:30;12.60;;;7.10;;
45940;SDS011;31858;46.008;8.978;2023-03-17T12:37:35;10.95;;;7.38;;
45940;SDS011;31858;46.008;8.978;2023-03-17T12:58:19;14.43;;;7.72;;
45940;SDS011;31858;46.008;8.978;2023-03-17T13:08:27;11.43;;;8.38;;
45940;SDS011;31858;46.008;8.978;2023-03-17T13:28:52;12.18;;;8.30;;
45940;SDS011;31858;46.008;8.978;2023-03-17T13:39:05;11.25;;;8.13;;
45940;SDS011;31858;46.008;8.978;2023-03-17T13:49:21;20.00;;;9.32;;
45940;SDS011;31858;46.008;8.978;2023-03-17T13:59:34;13.82;;;8.45;;
45940;SDS011;31858;46.008;8.978;2023-03-17T14:09:55;15.63;;;8.52;;
45940;SDS011;31858;46.008;8.978;2023-03-17T14:20:01;12.95;;;8.63;;
45940;SDS011;31858;46.008;8.978;2023-03-17T14:30:07;56.58;;;13.45;;
45940;SDS011;31858;46.008;8.978;2023-03-17T14:40:20;12.05;;;8.73;;
45940;SDS011;31858;46.008;8.978;2023-03-17T14:50:25;15.77;;;10.35;;
45940;SDS011;31858;46.008;8.978;2023-03-17T15:00:33;16.58;;;9.32;;
45940;SDS011;31858;46.008;8.978;2023-03-17T15:10:39;13.00;;;10.07;;
45940;SDS011;31858;46.008;8.978;2023-03-17T15:20:45;16.25;;;10.30;;
45940;SDS011;31858;46.008;8.978;2023-03-17T15:30:47;39.28;;;13.85;;
45940;SDS011;31858;46.008;8.978;2023-03-17T15:40:51;16.92;;;10.45;;
45940;SDS011;31858;46.008;8.978;2023-03-17T15:50:53;17.73;;;10.45;;
45940;SDS011;31858;46.008;8.978;2023-03-17T16:00:57;16.60;;;10.07;;
45940;SDS011;31858;46.008;8.978;2023-03-17T16:10:59;18.60;;;10.60;;
45940;SDS011;31858;46.008;8.978;2023-03-17T16:21:02;16.08;;;10.75;;
45940;SDS011;31858;46.008;8.978;2023-03-17T16:31:13;24.35;;;9.93;;
45940;SDS011;31858;46.008;8.978;2023-03-17T16:41:20;17.10;;;10.00;;
45940;SDS011;31858;46.008;8.978;2023-03-17T16:51:22;14.73;;;10.25;;
45940;SDS011;31858;46.008;8.978;2023-03-17T17:01:26;19.27;;;12.02;;
45940;SDS011;31858;46.008;8.978;2023-03-17T17:11:29;20.85;;;10.70;;
45940;SDS011;31858;46.008;8.978;2023-03-17T17:21:32;17.05;;;11.20;;
45940;SDS011;31858;46.008;8.978;2023-03-17T17:31:33;18.73;;;10.18;;
45940;SDS011;31858;46.008;8.978;2023-03-17T17:41:36;18.17;;;10.43;;
45940;SDS011;31858;46.008;8.978;2023-03-17T17:51:38;19.23;;;11.20;;
45940;SDS011;31858;46.008;8.978;2023-03-17T18:01:41;18.55;;;10.52;;
45940;SDS011;31858;46.008;8.978;2023-03-17T18:11:42;25.75;;;11.77;;
45940;SDS011;31858;46.008;8.978;2023-03-17T18:21:45;16.92;;;11.02;;
45940;SDS011;31858;46.008;8.978;2023-03-17T18:31:47;14.93;;;10.75;;
45940;SDS011;31858;46.008;8.978;2023-03-17T18:41:54;22.33;;;12.57;;
45940;SDS011;31858;46.008;8.978;2023-03-17T18:51:56;18.08;;;12.10;;
45940;SDS011;31858;46.008;8.978;2023-03-17T19:01:59;24.88;;;12.35;;
45940;SDS011;31858;46.008;8.978;2023-03-17T19:12:01;41.88;;;12.38;;
45940;SDS011;31858;46.008;8.978;2023-03-17T19:22:04;21.17;;;11.93;;
45940;SDS011;31858;46.008;8.978;2023-03-17T19:32:06;17.00;;;11.15;;
45940;SDS011;31858;46.008;8.978;2023-03-17T19:42:10;21.27;;;12.90;;
45940;SDS011;31858;46.008;8.978;2023-03-17T19:52:12;20.98;;;13.85;;
45940;SDS011;31858;46.008;8.978;2023-03-17T20:02:15;20.02;;;13.30;;
45940;SDS011;31858;46.008;8.978;2023-03-17T20:12:17;22.73;;;13.88;;
45940;SDS011;31858;46.008;8.978;2023-03-17T20:22:20;20.98;;;14.48;;
45940;SDS011;31858;46.008;8.978;2023-03-17T20:32:21;20.15;;;13.80;;
45940;SDS011;31858;46.008;8.978;2023-03-17T20:42:24;21.35;;;13.80;;
45940;SDS011;31858;46.008;8.978;2023-03-17T20:52:27;26.80;;;14.60;;
45940;SDS011;31858;46.008;8.978;2023-03-17T21:02:30;21.20;;;14.13;;
45940;SDS011;31858;46.008;8.978;2023-03-17T21:12:32;21.98;;;14.23;;
45940;SDS011;31858;46.008;8.978;2023-03-17T21:22:35;25.98;;;15.32;;
45940;SDS011;31858;46.008;8.978;2023-03-17T21:32:39;19.83;;;14.20;;
45940;SDS011;31858;46.008;8.978;2023-03-17T21:42:43;19.58;;;14.23;;
45940;SDS011;31858;46.008;8.978;2023-03-17T21:52:44;25.17;;;15.68;;
45940;SDS011;31858;46.008;8.978;2023-03-17T22:02:48;23.73;;;15.00;;
45940;SDS011;31858;46.008;8.978;2023-03-17T22:12:51;24.02;;;15.65;;
45940;SDS011;31858;46.008;8.978;2023-03-17T22:22:54;21.70;;;15.68;;
45940;SDS011;31858;46.008;8.978;2023-03-17T22:32:56;24.88;;;15.05;;
45940;SDS011;31858;46.008;8.978;2023-03-17T22:42:59;23.45;;;16.30;;
45940;SDS011;31858;46.008;8.978;2023-03-17T22:53:01;22.77;;;16.30;;
45940;SDS011;31858;46.008;8.978;2023-03-17T23:03:04;22.85;;;15.93;;
45940;SDS011;31858;46.008;8.978;2023-03-17T23:13:06;20.65;;;15.82;;
45940;SDS011;31858;46.008;8.978;2023-03-17T23:23:09;24.38;;;16.63;;
45940;SDS011;31858;46.008;8.978;2023-03-17T23:33:12;23.48;;;16.40;;
45940;SDS011;31858;46.008;8.978;2023-03-17T23:43:17;26.17;;;17.77;;
45940;SDS011;31858;46.008;8.978;2023-03-17T23:53:19;24.55;;;16.90;;
